Cedar Lane, TX (77415)

6:57 PM CST on February 09, 2016 (GMT -0600)
Bay City | | Change Station
CLOSE
Current Station
Airport
Location: Bay City,
Elevation: 46 ft
Nearby Weather Stations

Elev 46 ft 28.97 °N, 95.86 °W | Updated 22 minutes ago

Clear
Clear
60 °F
Feels Like 60 °F
N
0
Wind Variable Wind from North

Today
High -- | Low -- °F
--% Chance of Precip.
Yesterday
High -- | Low -- °F
Precip. -- in
Pressure 30.25 in
Visibility 10.0 miles
Clouds Clear
Dew Point 32 °F
Humidity 35%
Rainfall 0.00 in
Snow Depth Not available.
7:06 AM 6:08 PM
Waxing Crescent, 3% visible
METAR KBYY 100035Z AUTO 00000KT 10SM CLR 15/00 A3025 RMK AO2 T01540001
Pressure 30.25 in
Visibility 10.0 miles
Clouds Clear
Dew Point 32 °F
Humidity 35%
Rainfall 0.00 in
Snow Depth Not available.
7:06 AM 6:08 PM
Waxing Crescent, 3% visible
METAR KBYY 100035Z AUTO 00000KT 10SM CLR 15/00 A3025 RMK AO2 T01540001

10-Day Weather Forecast

Almanac

Astronomy

Feb. 09, 2016 Rise Set
Actual Time
Civil Twilight
Nautical Twilight
Astronomical Twilight
Moon
Length of Visible Light
Length of Day
Tomorrow will be .
, % of the Moon is Illuminated

Today's Extremes

State Highs State Lows

Community

WunderPhotos

Upload Photos

1,891,752 photos uploaded!

WunderBlog® & News

Nearby

Air Quality

  Air Quality AQ Index Pollutant
Not available.

Snow Depth

Station Depth Elevation

Earthquake Activity

City Distance Mag. Time & Date
Minimum magnitude displayed is 2.5.

Coastal Water Temperatures

Place Temperature

Stations

Nearby Weather Stations

Station Location Temp. Windchill Dew Point Humidity Wind Precip. Elev Updated Type
                   

Watches & Warnings

There are currently no watches in effect.